Ozone Park, NY

1:24 PM EST on December 19, 2014 (GMT -0500)
Ozone Park | Change Station
CLOSE
Current Station
Personal Weather Station
Location: New York, NY
Elevation: 33 ft
Nearby Weather Stations

Elev 33 ft 40.68 °N, 73.85 °W | Updated 6 minutes ago

Partly Cloudy
Partly Cloudy
43.0 °F
Feels Like 43 °F
N
2.7
Wind Variable Wind from SW

Today
High -- | Low -- °F
--% Chance of Precip.
Yesterday
High -- | Low -- °F
Precip. -- in
7:14 AM 4:30 PM
Waning Crescent, 7% visible
Pressure 30.04 in
Visibility 10.0 miles
Clouds Scattered Clouds 3700 ft
Windchill 43 °F
Dew Point 22 °F
Humidity 43%
Rainfall 0.00 in
Snow Depth Not available.
UV 2 out of 12
Pollen .10 out of 12
Air Quality Not available.
Flu Activity Not available.
METAR KJFK 191751Z 30016KT 10SM SCT037 04/M07 A3004 RMK AO2 SLP171 T00391072 10044 20028 56012 $

More Conditions Fewer Conditions

Pressure 30.04 in
Visibility 10.0 miles
Clouds Scattered Clouds 3700 ft
Windchill 43 °F
Dew Point 22 °F
Humidity 43%
Rainfall 0.00 in
Snow Depth Not available.
UV 2 out of 12
Pollen .10 out of 12
Air Quality Not available.
Flu Activity Not available.
METAR KJFK 191751Z 30016KT 10SM SCT037 04/M07 A3004 RMK AO2 SLP171 T00391072 10044 20028 56012 $

More Conditions Fewer Conditions

Nowcast | as of 11:45 am EST on December 19, 2014

A 1 to 2 hour period of clearing will move across the region early this afternoon. The clearing will reach the New York City are around 2 PM. Until then...skies will remain mostly cloudy with temperatures in the upper 30s. Clouds will return late this afternoon.

×

10-Day Weather Forecast

Almanac

Astronomy

Dec. 19, 2014 Rise Set
Actual Time
Civil Twilight
Nautical Twilight
Astronomical Twilight
Moon
Length of Visible Light
Length of Day
Tomorrow will be .
, % of the Moon is Illuminated

Today's Extremes

State Highs State Lows

Community

WunderPhotos

Upload Photos

1,779,019 photos uploaded!

WunderBlogs® & News

Nearby

Air Quality

  Air Quality AQ Index Pollutant
Not available.

Snow Depth

Station Depth Elevation

Earthquake Activity

City Distance Mag. Time & Date
Minimum magnitude displayed is 2.5.

Coastal Water Temperatures

Place Temperature

Nearby Weather Stations